V A Hospital, New Jersey
Current Conditions -  °F | °C
As of 1:51 AM on Thursday 18 Dec 2014 (Local Time) from KEWR Reporting Station
Overcast Overcast  
Wind Chill: 30°   Ceiling: 7500
Heat Index: 39°   Visibility: 10mi
Dew Point: 25°   Wind: 16mph
Humidity: 57%   Direction: 260°W
Pressure: 29.91"   Gusts: NA
Location:  40.7556°N, 74.2185°W
Report Text: KEWR 180651Z 26014KT 10SM SCT044 OVC075 04/M04 A2991 RMK AO2 SLP127 T00391039 PNO $
Loading
Personal Weather Stations






























Interactive Weather Map New forecast layout! Learn more

10-Day Weather Forecast

Advertisements
Track Severe Weather on mobile